sensor_id;sensor_type;location;lat;lon;timestamp;temperature;humidity
20057;DHT22;10189;49.546;7.906;2023-03-29T00:02:00;3.70;98.40
20057;DHT22;10189;49.546;7.906;2023-03-29T00:04:26;3.70;98.30
20057;DHT22;10189;49.546;7.906;2023-03-29T00:06:53;3.80;97.80
20057;DHT22;10189;49.546;7.906;2023-03-29T00:09:20;3.70;97.80
20057;DHT22;10189;49.546;7.906;2023-03-29T00:11:51;3.70;97.60
20057;DHT22;10189;49.546;7.906;2023-03-29T00:14:17;3.70;97.70
20057;DHT22;10189;49.546;7.906;2023-03-29T00:16:42;3.70;97.50
20057;DHT22;10189;49.546;7.906;2023-03-29T00:19:11;3.80;97.00
20057;DHT22;10189;49.546;7.906;2023-03-29T00:21:36;3.80;96.90
20057;DHT22;10189;49.546;7.906;2023-03-29T00:24:02;3.80;96.80
20057;DHT22;10189;49.546;7.906;2023-03-29T00:26:28;3.80;96.60
20057;DHT22;10189;49.546;7.906;2023-03-29T00:28:54;3.80;97.00
20057;DHT22;10189;49.546;7.906;2023-03-29T00:31:20;3.80;97.10
20057;DHT22;10189;49.546;7.906;2023-03-29T00:33:46;3.80;97.30
20057;DHT22;10189;49.546;7.906;2023-03-29T00:36:12;3.80;97.50
20057;DHT22;10189;49.546;7.906;2023-03-29T00:38:39;3.90;97.20
20057;DHT22;10189;49.546;7.906;2023-03-29T00:41:07;3.80;97.30
20057;DHT22;10189;49.546;7.906;2023-03-29T00:43:55;3.80;97.20
20057;DHT22;10189;49.546;7.906;2023-03-29T00:46:24;3.80;97.30
20057;DHT22;10189;49.546;7.906;2023-03-29T00:48:54;3.80;97.40
20057;DHT22;10189;49.546;7.906;2023-03-29T00:51:25;3.80;97.40
20057;DHT22;10189;49.546;7.906;2023-03-29T00:53:58;3.70;97.70
20057;DHT22;10189;49.546;7.906;2023-03-29T00:56:31;3.70;98.10
20057;DHT22;10189;49.546;7.906;2023-03-29T00:59:11;3.80;98.10
20057;DHT22;10189;49.546;7.906;2023-03-29T01:01:49;3.80;98.50
20057;DHT22;10189;49.546;7.906;2023-03-29T01:04:29;3.80;98.20
20057;DHT22;10189;49.546;7.906;2023-03-29T01:07:25;3.80;98.40
20057;DHT22;10189;49.546;7.906;2023-03-29T01:10:11;3.70;98.70
20057;DHT22;10189;49.546;7.906;2023-03-29T01:12:57;3.70;99.40
20057;DHT22;10189;49.546;7.906;2023-03-29T01:15:28;3.70;99.70
20057;DHT22;10189;49.546;7.906;2023-03-29T01:17:55;3.70;99.90
20057;DHT22;10189;49.546;7.906;2023-03-29T01:26:42;3.60;99.90
20057;DHT22;10189;49.546;7.906;2023-03-29T01:29:21;3.70;99.90
20057;DHT22;10189;49.546;7.906;2023-03-29T01:32:01;3.80;99.90
20057;DHT22;10189;49.546;7.906;2023-03-29T01:34:55;3.90;99.90
20057;DHT22;10189;49.546;7.906;2023-03-29T01:40:02;3.80;99.90
20057;DHT22;10189;49.546;7.906;2023-03-29T01:42:54;3.80;99.80
20057;DHT22;10189;49.546;7.906;2023-03-29T01:45:50;3.80;99.90
20057;DHT22;10189;49.546;7.906;2023-03-29T01:51:17;3.70;99.90
20057;DHT22;10189;49.546;7.906;2023-03-29T01:54:06;3.70;99.90
20057;DHT22;10189;49.546;7.906;2023-03-29T01:56:38;3.70;99.90
20057;DHT22;10189;49.546;7.906;2023-03-29T01:59:10;3.60;99.90
20057;DHT22;10189;49.546;7.906;2023-03-29T02:01:45;3.60;99.90
20057;DHT22;10189;49.546;7.906;2023-03-29T02:04:27;3.60;99.90
20057;DHT22;10189;49.546;7.906;2023-03-29T02:06:59;3.70;99.90
20057;DHT22;10189;49.546;7.906;2023-03-29T02:09:28;3.70;99.90
20057;DHT22;10189;49.546;7.906;2023-03-29T02:11:58;3.70;99.90
20057;DHT22;10189;49.546;7.906;2023-03-29T02:14:25;3.60;99.90
20057;DHT22;10189;49.546;7.906;2023-03-29T02:16:52;3.60;99.90
20057;DHT22;10189;49.546;7.906;2023-03-29T02:19:19;3.50;99.90
20057;DHT22;10189;49.546;7.906;2023-03-29T02:21:53;3.50;99.90
20057;DHT22;10189;49.546;7.906;2023-03-29T02:24:28;3.40;99.90
20057;DHT22;10189;49.546;7.906;2023-03-29T02:26:59;3.40;99.90
20057;DHT22;10189;49.546;7.906;2023-03-29T02:29:25;3.30;99.90
20057;DHT22;10189;49.546;7.906;2023-03-29T02:31:57;3.30;99.90
20057;DHT22;10189;49.546;7.906;2023-03-29T02:34:43;3.20;99.90
20057;DHT22;10189;49.546;7.906;2023-03-29T02:37:16;3.10;99.90
20057;DHT22;10189;49.546;7.906;2023-03-29T02:39:47;3.00;99.90
20057;DHT22;10189;49.546;7.906;2023-03-29T02:42:17;2.80;99.90
20057;DHT22;10189;49.546;7.906;2023-03-29T02:44:46;2.60;99.90
20057;DHT22;10189;49.546;7.906;2023-03-29T02:47:20;2.50;99.90
20057;DHT22;10189;49.546;7.906;2023-03-29T02:49:49;2.30;99.90
20057;DHT22;10189;49.546;7.906;2023-03-29T02:52:20;2.20;99.90
20057;DHT22;10189;49.546;7.906;2023-03-29T02:54:51;2.20;99.90
20057;DHT22;10189;49.546;7.906;2023-03-29T02:57:21;2.10;99.90
20057;DHT22;10189;49.546;7.906;2023-03-29T02:59:55;1.90;99.90
20057;DHT22;10189;49.546;7.906;2023-03-29T03:02:23;1.90;99.90
20057;DHT22;10189;49.546;7.906;2023-03-29T03:04:53;1.80;99.90
20057;DHT22;10189;49.546;7.906;2023-03-29T03:07:19;1.70;99.90
20057;DHT22;10189;49.546;7.906;2023-03-29T03:09:45;1.70;99.90
20057;DHT22;10189;49.546;7.906;2023-03-29T03:12:13;1.60;99.90
20057;DHT22;10189;49.546;7.906;2023-03-29T03:14:39;1.50;99.90
20057;DHT22;10189;49.546;7.906;2023-03-29T03:17:05;1.50;99.90
20057;DHT22;10189;49.546;7.906;2023-03-29T03:19:32;1.40;99.90
20057;DHT22;10189;49.546;7.906;2023-03-29T03:21:58;1.40;99.90
20057;DHT22;10189;49.546;7.906;2023-03-29T03:24:24;1.40;99.90
20057;DHT22;10189;49.546;7.906;2023-03-29T03:26:50;1.40;99.90
20057;DHT22;10189;49.546;7.906;2023-03-29T03:29:17;1.40;99.90
20057;DHT22;10189;49.546;7.906;2023-03-29T03:32:02;1.30;99.90
20057;DHT22;10189;49.546;7.906;2023-03-29T03:34:51;1.30;99.90
20057;DHT22;10189;49.546;7.906;2023-03-29T03:37:21;1.30;99.90
20057;DHT22;10189;49.546;7.906;2023-03-29T03:39:47;1.30;99.90
20057;DHT22;10189;49.546;7.906;2023-03-29T03:42:13;1.30;99.90
20057;DHT22;10189;49.546;7.906;2023-03-29T03:44:41;1.30;99.90
20057;DHT22;10189;49.546;7.906;2023-03-29T03:47:26;1.30;99.90
20057;DHT22;10189;49.546;7.906;2023-03-29T03:49:55;1.30;99.90
20057;DHT22;10189;49.546;7.906;2023-03-29T03:52:24;1.30;99.90
20057;DHT22;10189;49.546;7.906;2023-03-29T03:54:50;1.20;99.90
20057;DHT22;10189;49.546;7.906;2023-03-29T03:57:35;1.20;99.90
20057;DHT22;10189;49.546;7.906;2023-03-29T04:00:08;1.10;99.90
20057;DHT22;10189;49.546;7.906;2023-03-29T04:02:46;1.10;99.90
20057;DHT22;10189;49.546;7.906;2023-03-29T04:05:13;1.10;99.90
20057;DHT22;10189;49.546;7.906;2023-03-29T04:07:41;1.10;99.90
20057;DHT22;10189;49.546;7.906;2023-03-29T04:10:34;1.10;99.90
20057;DHT22;10189;49.546;7.906;2023-03-29T04:13:11;1.10;99.90
20057;DHT22;10189;49.546;7.906;2023-03-29T04:15:57;1.20;99.90
20057;DHT22;10189;49.546;7.906;2023-03-29T04:18:23;1.20;99.90
20057;DHT22;10189;49.546;7.906;2023-03-29T04:20:52;1.20;99.90
20057;DHT22;10189;49.546;7.906;2023-03-29T04:23:21;1.20;99.90
20057;DHT22;10189;49.546;7.906;2023-03-29T04:25:48;1.30;99.90
20057;DHT22;10189;49.546;7.906;2023-03-29T04:28:34;1.30;99.90
20057;DHT22;10189;49.546;7.906;2023-03-29T04:31:20;1.30;99.90
20057;DHT22;10189;49.546;7.906;2023-03-29T04:34:12;1.30;99.90
20057;DHT22;10189;49.546;7.906;2023-03-29T04:36:38;1.20;99.90
20057;DHT22;10189;49.546;7.906;2023-03-29T04:39:10;1.10;99.90
20057;DHT22;10189;49.546;7.906;2023-03-29T04:41:36;1.10;99.90
20057;DHT22;10189;49.546;7.906;2023-03-29T04:44:09;1.00;99.90
20057;DHT22;10189;49.546;7.906;2023-03-29T04:46:35;0.90;99.90
20057;DHT22;10189;49.546;7.906;2023-03-29T04:49:41;0.90;99.90
20057;DHT22;10189;49.546;7.906;2023-03-29T04:52:13;0.80;99.90
20057;DHT22;10189;49.546;7.906;2023-03-29T04:54:39;0.70;99.90
20057;DHT22;10189;49.546;7.906;2023-03-29T04:57:23;0.70;99.90
20057;DHT22;10189;49.546;7.906;2023-03-29T05:00:03;0.60;99.90
20057;DHT22;10189;49.546;7.906;2023-03-29T05:02:57;0.50;99.90
20057;DHT22;10189;49.546;7.906;2023-03-29T05:05:24;0.50;99.90
20057;DHT22;10189;49.546;7.906;2023-03-29T05:07:50;0.40;99.90
20057;DHT22;10189;49.546;7.906;2023-03-29T05:10:21;0.40;99.90
20057;DHT22;10189;49.546;7.906;2023-03-29T05:12:48;0.40;99.90
20057;DHT22;10189;49.546;7.906;2023-03-29T05:15:20;0.40;99.90
20057;DHT22;10189;49.546;7.906;2023-03-29T05:17:48;0.30;99.90
20057;DHT22;10189;49.546;7.906;2023-03-29T05:20:15;0.30;99.90
20057;DHT22;10189;49.546;7.906;2023-03-29T05:22:43;0.30;99.90
20057;DHT22;10189;49.546;7.906;2023-03-29T05:25:16;0.30;99.90
20057;DHT22;10189;49.546;7.906;2023-03-29T05:27:43;0.30;99.90
20057;DHT22;10189;49.546;7.906;2023-03-29T05:30:12;0.30;99.90
20057;DHT22;10189;49.546;7.906;2023-03-29T05:32:55;0.30;99.90
20057;DHT22;10189;49.546;7.906;2023-03-29T05:35:23;0.40;99.90
20057;DHT22;10189;49.546;7.906;2023-03-29T05:37:51;0.40;99.90
20057;DHT22;10189;49.546;7.906;2023-03-29T05:40:18;0.50;99.90
20057;DHT22;10189;49.546;7.906;2023-03-29T05:43:02;0.50;99.90
20057;DHT22;10189;49.546;7.906;2023-03-29T05:45:28;0.70;99.90
20057;DHT22;10189;49.546;7.906;2023-03-29T05:47:55;0.70;99.90
20057;DHT22;10189;49.546;7.906;2023-03-29T05:50:22;0.80;99.90
20057;DHT22;10189;49.546;7.906;2023-03-29T05:52:48;0.90;99.90
20057;DHT22;10189;49.546;7.906;2023-03-29T05:55:16;1.00;99.90
20057;DHT22;10189;49.546;7.906;2023-03-29T05:57:42;1.20;99.90
20057;DHT22;10189;49.546;7.906;2023-03-29T06:00:09;1.30;99.90
20057;DHT22;10189;49.546;7.906;2023-03-29T06:02:44;1.40;99.90
20057;DHT22;10189;49.546;7.906;2023-03-29T06:05:11;1.60;99.90
20057;DHT22;10189;49.546;7.906;2023-03-29T06:07:53;1.80;99.90
20057;DHT22;10189;49.546;7.906;2023-03-29T06:10:42;2.10;99.90
20057;DHT22;10189;49.546;7.906;2023-03-29T06:13:24;2.40;99.90
20057;DHT22;10189;49.546;7.906;2023-03-29T06:15:51;2.60;99.90
20057;DHT22;10189;49.546;7.906;2023-03-29T06:18:18;2.80;99.90
20057;DHT22;10189;49.546;7.906;2023-03-29T06:20:48;3.00;99.90
20057;DHT22;10189;49.546;7.906;2023-03-29T06:23:19;3.20;99.90
20057;DHT22;10189;49.546;7.906;2023-03-29T06:25:45;3.40;99.90
20057;DHT22;10189;49.546;7.906;2023-03-29T06:28:13;3.50;99.90
20057;DHT22;10189;49.546;7.906;2023-03-29T06:30:40;3.80;97.30
20057;DHT22;10189;49.546;7.906;2023-03-29T06:33:11;3.90;96.90
20057;DHT22;10189;49.546;7.906;2023-03-29T06:35:58;4.10;95.70
20057;DHT22;10189;49.546;7.906;2023-03-29T06:38:27;4.30;93.70
20057;DHT22;10189;49.546;7.906;2023-03-29T06:41:22;4.40;92.30
20057;DHT22;10189;49.546;7.906;2023-03-29T06:44:10;4.60;89.40
20057;DHT22;10189;49.546;7.906;2023-03-29T06:46:49;4.70;88.50
20057;DHT22;10189;49.546;7.906;2023-03-29T06:49:15;4.80;89.60
20057;DHT22;10189;49.546;7.906;2023-03-29T06:52:00;4.80;88.80
20057;DHT22;10189;49.546;7.906;2023-03-29T06:54:26;4.90;89.00
20057;DHT22;10189;49.546;7.906;2023-03-29T06:56:59;4.90;88.90
20057;DHT22;10189;49.546;7.906;2023-03-29T06:59:27;5.10;88.40
20057;DHT22;10189;49.546;7.906;2023-03-29T07:02:14;5.20;87.80
20057;DHT22;10189;49.546;7.906;2023-03-29T07:04:47;5.30;87.00
20057;DHT22;10189;49.546;7.906;2023-03-29T07:07:27;5.40;87.30
20057;DHT22;10189;49.546;7.906;2023-03-29T07:10:18;5.60;86.00
20057;DHT22;10189;49.546;7.906;2023-03-29T07:12:47;5.70;85.30
20057;DHT22;10189;49.546;7.906;2023-03-29T07:15:15;5.80;84.40
20057;DHT22;10189;49.546;7.906;2023-03-29T07:18:03;5.90;85.00
20057;DHT22;10189;49.546;7.906;2023-03-29T07:20:31;6.10;84.50
20057;DHT22;10189;49.546;7.906;2023-03-29T07:23:06;6.20;84.30
20057;DHT22;10189;49.546;7.906;2023-03-29T07:25:34;6.40;84.10
20057;DHT22;10189;49.546;7.906;2023-03-29T07:28:01;6.60;81.80
20057;DHT22;10189;49.546;7.906;2023-03-29T07:30:29;6.80;81.60
20057;DHT22;10189;49.546;7.906;2023-03-29T07:33:06;7.10;82.10
20057;DHT22;10189;49.546;7.906;2023-03-29T07:35:38;7.30;78.90
20057;DHT22;10189;49.546;7.906;2023-03-29T07:38:08;7.40;79.70
20057;DHT22;10189;49.546;7.906;2023-03-29T07:40:37;7.50;80.10
20057;DHT22;10189;49.546;7.906;2023-03-29T07:43:21;7.60;80.00
20057;DHT22;10189;49.546;7.906;2023-03-29T07:45:50;7.70;78.80
20057;DHT22;10189;49.546;7.906;2023-03-29T07:48:18;7.80;79.70
20057;DHT22;10189;49.546;7.906;2023-03-29T07:50:50;8.10;78.90
20057;DHT22;10189;49.546;7.906;2023-03-29T07:53:20;8.30;76.60
20057;DHT22;10189;49.546;7.906;2023-03-29T07:55:48;8.50;76.80
20057;DHT22;10189;49.546;7.906;2023-03-29T07:58:49;8.80;76.00
20057;DHT22;10189;49.546;7.906;2023-03-29T08:01:17;9.00;75.80
20057;DHT22;10189;49.546;7.906;2023-03-29T08:04:09;9.20;75.10
20057;DHT22;10189;49.546;7.906;2023-03-29T08:06:53;9.50;74.00
20057;DHT22;10189;49.546;7.906;2023-03-29T08:09:22;9.60;73.90
20057;DHT22;10189;49.546;7.906;2023-03-29T08:11:48;9.70;73.50
20057;DHT22;10189;49.546;7.906;2023-03-29T08:14:20;9.50;74.90
20057;DHT22;10189;49.546;7.906;2023-03-29T08:17:10;9.60;75.90
20057;DHT22;10189;49.546;7.906;2023-03-29T08:19:42;9.60;74.20
20057;DHT22;10189;49.546;7.906;2023-03-29T08:22:08;9.90;74.10
20057;DHT22;10189;49.546;7.906;2023-03-29T08:24:55;9.90;74.80
20057;DHT22;10189;49.546;7.906;2023-03-29T08:27:24;10.10;73.80
20057;DHT22;10189;49.546;7.906;2023-03-29T08:29:51;10.10;73.70
20057;DHT22;10189;49.546;7.906;2023-03-29T08:32:17;9.80;74.40
20057;DHT22;10189;49.546;7.906;2023-03-29T08:34:43;9.70;74.90
20057;DHT22;10189;49.546;7.906;2023-03-29T08:37:23;9.70;75.90
20057;DHT22;10189;49.546;7.906;2023-03-29T08:39:52;9.70;77.30
20057;DHT22;10189;49.546;7.906;2023-03-29T08:42:47;9.70;74.00
20057;DHT22;10189;49.546;7.906;2023-03-29T08:48:34;10.00;73.70
20057;DHT22;10189;49.546;7.906;2023-03-29T08:51:31;10.10;75.10
20057;DHT22;10189;49.546;7.906;2023-03-29T08:54:11;10.20;75.40
20057;DHT22;10189;49.546;7.906;2023-03-29T08:57:31;10.20;73.50
20057;DHT22;10189;49.546;7.906;2023-03-29T09:02:47;10.10;73.70
20057;DHT22;10189;49.546;7.906;2023-03-29T09:05:28;10.10;73.10
20057;DHT22;10189;49.546;7.906;2023-03-29T09:08:24;10.20;73.50
20057;DHT22;10189;49.546;7.906;2023-03-29T09:11:23;10.60;76.60
20057;DHT22;10189;49.546;7.906;2023-03-29T09:19:55;10.90;70.70
20057;DHT22;10189;49.546;7.906;2023-03-29T09:25:17;11.10;71.40
20057;DHT22;10189;49.546;7.906;2023-03-29T09:28:13;11.20;70.40
20057;DHT22;10189;49.546;7.906;2023-03-29T09:33:51;11.30;70.20
20057;DHT22;10189;49.546;7.906;2023-03-29T09:37:05;11.50;68.70
20057;DHT22;10189;49.546;7.906;2023-03-29T09:39:41;11.60;68.30
20057;DHT22;10189;49.546;7.906;2023-03-29T09:42:12;11.60;68.50
20057;DHT22;10189;49.546;7.906;2023-03-29T09:44:46;11.80;68.90
20057;DHT22;10189;49.546;7.906;2023-03-29T09:47:30;12.10;68.00
20057;DHT22;10189;49.546;7.906;2023-03-29T09:53:02;12.20;67.70
20057;DHT22;10189;49.546;7.906;2023-03-29T09:55:33;12.30;69.60
20057;DHT22;10189;49.546;7.906;2023-03-29T09:58:16;12.50;66.80
20057;DHT22;10189;49.546;7.906;2023-03-29T10:00:49;12.80;67.10
20057;DHT22;10189;49.546;7.906;2023-03-29T10:03:19;13.20;65.80
20057;DHT22;10189;49.546;7.906;2023-03-29T10:05:59;13.10;67.30
20057;DHT22;10189;49.546;7.906;2023-03-29T10:08:28;13.20;65.90
20057;DHT22;10189;49.546;7.906;2023-03-29T10:11:11;13.20;65.40
20057;DHT22;10189;49.546;7.906;2023-03-29T10:13:46;13.20;66.90
20057;DHT22;10189;49.546;7.906;2023-03-29T10:16:23;13.20;66.10
20057;DHT22;10189;49.546;7.906;2023-03-29T10:18:53;13.40;67.30
20057;DHT22;10189;49.546;7.906;2023-03-29T10:21:20;13.50;65.50
20057;DHT22;10189;49.546;7.906;2023-03-29T10:23:48;13.50;63.20
20057;DHT22;10189;49.546;7.906;2023-03-29T10:26:26;13.50;65.80
20057;DHT22;10189;49.546;7.906;2023-03-29T10:28:58;13.80;66.10
20057;DHT22;10189;49.546;7.906;2023-03-29T10:31:29;14.10;64.20
20057;DHT22;10189;49.546;7.906;2023-03-29T10:34:03;14.10;59.40
20057;DHT22;10189;49.546;7.906;2023-03-29T10:36:30;14.10;64.60
20057;DHT22;10189;49.546;7.906;2023-03-29T10:38:59;14.20;60.30
20057;DHT22;10189;49.546;7.906;2023-03-29T10:41:27;14.10;62.80
20057;DHT22;10189;49.546;7.906;2023-03-29T10:43:54;14.40;61.30
20057;DHT22;10189;49.546;7.906;2023-03-29T10:46:29;14.60;58.10
20057;DHT22;10189;49.546;7.906;2023-03-29T10:49:25;14.80;58.60
20057;DHT22;10189;49.546;7.906;2023-03-29T10:51:52;14.60;55.40
20057;DHT22;10189;49.546;7.906;2023-03-29T10:54:21;14.40;57.50
20057;DHT22;10189;49.546;7.906;2023-03-29T10:56:54;14.50;56.90
20057;DHT22;10189;49.546;7.906;2023-03-29T11:12:56;14.70;56.00
20057;DHT22;10189;49.546;7.906;2023-03-29T11:16:29;14.70;54.80
20057;DHT22;10189;49.546;7.906;2023-03-29T11:19:11;14.50;55.40
20057;DHT22;10189;49.546;7.906;2023-03-29T11:22:14;14.60;57.00
20057;DHT22;10189;49.546;7.906;2023-03-29T11:28:13;14.50;56.00
20057;DHT22;10189;49.546;7.906;2023-03-29T11:34:12;14.20;57.20
20057;DHT22;10189;49.546;7.906;2023-03-29T11:37:15;14.00;57.60
20057;DHT22;10189;49.546;7.906;2023-03-29T11:40:27;14.10;57.20
20057;DHT22;10189;49.546;7.906;2023-03-29T11:43:15;14.50;56.80
20057;DHT22;10189;49.546;7.906;2023-03-29T11:45:55;14.90;57.50
20057;DHT22;10189;49.546;7.906;2023-03-29T11:49:09;15.10;56.50
20057;DHT22;10189;49.546;7.906;2023-03-29T11:54:54;15.00;55.80
20057;DHT22;10189;49.546;7.906;2023-03-29T12:05:44;15.90;56.80
20057;DHT22;10189;49.546;7.906;2023-03-29T12:08:21;16.30;54.10
20057;DHT22;10189;49.546;7.906;2023-03-29T12:11:13;16.50;54.60
20057;DHT22;10189;49.546;7.906;2023-03-29T12:14:14;16.70;55.30
20057;DHT22;10189;49.546;7.906;2023-03-29T12:17:07;16.80;53.30
20057;DHT22;10189;49.546;7.906;2023-03-29T12:19:42;16.70;55.00
20057;DHT22;10189;49.546;7.906;2023-03-29T12:22:15;16.50;52.50
20057;DHT22;10189;49.546;7.906;2023-03-29T12:24:45;16.20;55.40
20057;DHT22;10189;49.546;7.906;2023-03-29T12:27:28;16.10;56.10
20057;DHT22;10189;49.546;7.906;2023-03-29T12:36:29;15.60;55.80
20057;DHT22;10189;49.546;7.906;2023-03-29T12:39:27;15.90;56.50
20057;DHT22;10189;49.546;7.906;2023-03-29T12:42:23;16.10;54.30
20057;DHT22;10189;49.546;7.906;2023-03-29T12:45:36;15.90;56.60
20057;DHT22;10189;49.546;7.906;2023-03-29T12:48:05;15.80;56.60
20057;DHT22;10189;49.546;7.906;2023-03-29T12:50:35;15.70;56.80
20057;DHT22;10189;49.546;7.906;2023-03-29T12:53:21;15.60;56.50
20057;DHT22;10189;49.546;7.906;2023-03-29T12:58:26;15.50;57.80
20057;DHT22;10189;49.546;7.906;2023-03-29T13:01:09;15.80;57.00
20057;DHT22;10189;49.546;7.906;2023-03-29T13:09:22;16.30;57.40
20057;DHT22;10189;49.546;7.906;2023-03-29T13:14:41;16.50;57.20
20057;DHT22;10189;49.546;7.906;2023-03-29T13:17:35;16.40;57.10
20057;DHT22;10189;49.546;7.906;2023-03-29T13:23:35;15.90;57.10
20057;DHT22;10189;49.546;7.906;2023-03-29T13:34:54;15.60;58.30
20057;DHT22;10189;49.546;7.906;2023-03-29T13:48:31;15.80;58.00
20057;DHT22;10189;49.546;7.906;2023-03-29T13:53:47;15.70;58.90
20057;DHT22;10189;49.546;7.906;2023-03-29T13:56:19;15.80;60.00
20057;DHT22;10189;49.546;7.906;2023-03-29T13:59:01;15.60;59.90
20057;DHT22;10189;49.546;7.906;2023-03-29T14:01:42;15.90;59.80
20057;DHT22;10189;49.546;7.906;2023-03-29T14:04:18;16.20;57.70
20057;DHT22;10189;49.546;7.906;2023-03-29T14:06:52;16.20;57.80
20057;DHT22;10189;49.546;7.906;2023-03-29T14:09:23;16.10;57.60
20057;DHT22;10189;49.546;7.906;2023-03-29T14:11:55;15.90;58.60
20057;DHT22;10189;49.546;7.906;2023-03-29T14:14:25;15.80;60.40
20057;DHT22;10189;49.546;7.906;2023-03-29T14:17:00;15.80;59.30
20057;DHT22;10189;49.546;7.906;2023-03-29T14:19:32;15.70;59.50
20057;DHT22;10189;49.546;7.906;2023-03-29T14:22:01;15.80;59.70
20057;DHT22;10189;49.546;7.906;2023-03-29T14:24:38;15.70;61.30
20057;DHT22;10189;49.546;7.906;2023-03-29T14:27:07;15.70;61.40
20057;DHT22;10189;49.546;7.906;2023-03-29T14:29:36;15.70;61.70
20057;DHT22;10189;49.546;7.906;2023-03-29T14:32:13;15.50;61.80
20057;DHT22;10189;49.546;7.906;2023-03-29T14:34:41;15.40;62.30
20057;DHT22;10189;49.546;7.906;2023-03-29T14:37:15;15.20;62.80
20057;DHT22;10189;49.546;7.906;2023-03-29T14:39:46;14.90;64.40
20057;DHT22;10189;49.546;7.906;2023-03-29T14:42:18;14.70;65.40
20057;DHT22;10189;49.546;7.906;2023-03-29T14:44:49;14.60;66.60
20057;DHT22;10189;49.546;7.906;2023-03-29T14:47:33;14.40;68.20
20057;DHT22;10189;49.546;7.906;2023-03-29T14:50:01;14.50;68.70
20057;DHT22;10189;49.546;7.906;2023-03-29T14:52:29;14.60;69.80
20057;DHT22;10189;49.546;7.906;2023-03-29T14:54:59;14.60;69.90
20057;DHT22;10189;49.546;7.906;2023-03-29T14:57:32;14.70;69.80
20057;DHT22;10189;49.546;7.906;2023-03-29T15:00:14;14.80;69.50
20057;DHT22;10189;49.546;7.906;2023-03-29T15:02:52;14.70;70.00
20057;DHT22;10189;49.546;7.906;2023-03-29T15:05:38;14.70;70.30
20057;DHT22;10189;49.546;7.906;2023-03-29T15:08:06;14.70;70.70
20057;DHT22;10189;49.546;7.906;2023-03-29T15:10:37;14.80;70.40
20057;DHT22;10189;49.546;7.906;2023-03-29T15:13:06;14.90;70.40
20057;DHT22;10189;49.546;7.906;2023-03-29T15:15:35;15.10;69.90
20057;DHT22;10189;49.546;7.906;2023-03-29T15:18:04;15.00;69.90
20057;DHT22;10189;49.546;7.906;2023-03-29T15:20:35;15.10;68.60
20057;DHT22;10189;49.546;7.906;2023-03-29T15:25:37;15.10;70.10
20057;DHT22;10189;49.546;7.906;2023-03-29T15:28:33;15.20;70.80
20057;DHT22;10189;49.546;7.906;2023-03-29T15:31:09;15.40;69.80
20057;DHT22;10189;49.546;7.906;2023-03-29T15:33:42;15.50;67.30
20057;DHT22;10189;49.546;7.906;2023-03-29T15:36:10;15.50;67.70
20057;DHT22;10189;49.546;7.906;2023-03-29T15:38:39;15.50;66.20
20057;DHT22;10189;49.546;7.906;2023-03-29T15:41:07;15.40;66.70
20057;DHT22;10189;49.546;7.906;2023-03-29T15:43:35;15.50;67.80
20057;DHT22;10189;49.546;7.906;2023-03-29T15:46:01;15.40;67.20
20057;DHT22;10189;49.546;7.906;2023-03-29T15:48:28;15.40;65.10
20057;DHT22;10189;49.546;7.906;2023-03-29T15:50:54;15.40;65.10
20057;DHT22;10189;49.546;7.906;2023-03-29T15:53:21;15.30;64.20
20057;DHT22;10189;49.546;7.906;2023-03-29T15:55:50;15.30;64.30
20057;DHT22;10189;49.546;7.906;2023-03-29T15:58:26;15.10;64.60
20057;DHT22;10189;49.546;7.906;2023-03-29T16:01:04;15.00;64.30
20057;DHT22;10189;49.546;7.906;2023-03-29T16:03:43;14.90;64.90
20057;DHT22;10189;49.546;7.906;2023-03-29T16:06:10;14.80;65.70
20057;DHT22;10189;49.546;7.906;2023-03-29T16:08:36;14.70;65.30
20057;DHT22;10189;49.546;7.906;2023-03-29T16:11:02;14.60;65.20
20057;DHT22;10189;49.546;7.906;2023-03-29T16:13:31;14.50;64.90
20057;DHT22;10189;49.546;7.906;2023-03-29T16:15:57;14.40;65.90
20057;DHT22;10189;49.546;7.906;2023-03-29T16:18:23;14.30;65.70
20057;DHT22;10189;49.546;7.906;2023-03-29T16:20:49;14.30;65.50
20057;DHT22;10189;49.546;7.906;2023-03-29T16:23:15;14.30;66.70
20057;DHT22;10189;49.546;7.906;2023-03-29T16:25:41;14.20;67.10
20057;DHT22;10189;49.546;7.906;2023-03-29T16:28:08;14.20;66.50
20057;DHT22;10189;49.546;7.906;2023-03-29T16:30:35;14.20;67.30
20057;DHT22;10189;49.546;7.906;2023-03-29T16:33:03;14.30;67.90
20057;DHT22;10189;49.546;7.906;2023-03-29T16:35:37;14.30;67.20
20057;DHT22;10189;49.546;7.906;2023-03-29T16:38:04;14.20;67.20
20057;DHT22;10189;49.546;7.906;2023-03-29T16:40:31;14.30;66.70
20057;DHT22;10189;49.546;7.906;2023-03-29T16:42:58;14.20;66.60
20057;DHT22;10189;49.546;7.906;2023-03-29T16:45:24;14.20;66.50
20057;DHT22;10189;49.546;7.906;2023-03-29T16:47:51;14.10;67.20
20057;DHT22;10189;49.546;7.906;2023-03-29T16:50:19;14.10;67.70
20057;DHT22;10189;49.546;7.906;2023-03-29T16:52:47;14.00;67.60
20057;DHT22;10189;49.546;7.906;2023-03-29T16:55:16;14.00;67.90
20057;DHT22;10189;49.546;7.906;2023-03-29T16:57:44;14.00;67.50
20057;DHT22;10189;49.546;7.906;2023-03-29T17:00:12;14.00;68.10
20057;DHT22;10189;49.546;7.906;2023-03-29T17:02:42;13.90;68.00
20057;DHT22;10189;49.546;7.906;2023-03-29T17:05:09;13.90;67.60
20057;DHT22;10189;49.546;7.906;2023-03-29T17:07:37;13.80;68.10
20057;DHT22;10189;49.546;7.906;2023-03-29T17:10:07;13.70;68.70
20057;DHT22;10189;49.546;7.906;2023-03-29T17:12:35;13.60;68.60
20057;DHT22;10189;49.546;7.906;2023-03-29T17:15:02;13.50;69.10
20057;DHT22;10189;49.546;7.906;2023-03-29T17:17:29;13.40;69.20
20057;DHT22;10189;49.546;7.906;2023-03-29T17:19:55;13.40;69.80
20057;DHT22;10189;49.546;7.906;2023-03-29T17:22:22;13.30;70.00
20057;DHT22;10189;49.546;7.906;2023-03-29T17:24:49;13.20;70.60
20057;DHT22;10189;49.546;7.906;2023-03-29T17:27:15;13.10;70.50
20057;DHT22;10189;49.546;7.906;2023-03-29T17:29:41;13.10;70.30
20057;DHT22;10189;49.546;7.906;2023-03-29T17:32:07;13.10;70.40
20057;DHT22;10189;49.546;7.906;2023-03-29T17:34:33;13.00;71.30
20057;DHT22;10189;49.546;7.906;2023-03-29T17:36:59;12.90;71.90
20057;DHT22;10189;49.546;7.906;2023-03-29T17:39:25;12.80;72.60
20057;DHT22;10189;49.546;7.906;2023-03-29T17:41:52;12.70;73.80
20057;DHT22;10189;49.546;7.906;2023-03-29T17:44:18;12.60;74.10
20057;DHT22;10189;49.546;7.906;2023-03-29T17:46:45;12.50;74.50
20057;DHT22;10189;49.546;7.906;2023-03-29T17:49:12;12.40;75.30
20057;DHT22;10189;49.546;7.906;2023-03-29T17:51:38;12.30;75.50
20057;DHT22;10189;49.546;7.906;2023-03-29T17:54:04;12.20;75.90
20057;DHT22;10189;49.546;7.906;2023-03-29T17:56:30;12.00;77.00
20057;DHT22;10189;49.546;7.906;2023-03-29T17:58:57;11.90;77.60
20057;DHT22;10189;49.546;7.906;2023-03-29T18:01:23;11.70;78.40
20057;DHT22;10189;49.546;7.906;2023-03-29T18:03:51;11.60;78.60
20057;DHT22;10189;49.546;7.906;2023-03-29T18:06:17;11.50;79.20
20057;DHT22;10189;49.546;7.906;2023-03-29T18:08:45;11.40;79.70
20057;DHT22;10189;49.546;7.906;2023-03-29T18:11:17;11.40;80.00